Time;durP1;ratioP1;P1;durP2;ratioP2;P2;SDS_P1;SDS_P2;PMS_P1;PMS_P2;Temp;Humidity;BMP_temperature;BMP_pressure;BME280_temperature;BME280_humidity;BME280_pressure;Samples;Min_cycle;Max_cycle;Signal;HPM_P1;HPM_P2
2022/11/08 00:02:46;;;;;;;25.08;18.87;;;;;;;2.18;74.22;100932.67;1767011;79;22012;-77
2022/11/08 00:16:17;;;;;;;27.87;20.55;;;;;;;2.14;74.40;100918.91;1768765;79;21776;-77
2022/11/08 00:18:46;;;;;;;28.00;21.23;;;;;;;2.16;74.46;100917.55;1765524;79;21682;-77
2022/11/08 00:21:14;;;;;;;25.80;19.95;;;;;;;2.16;74.46;100917.55;1774758;79;20961;-77
2022/11/08 00:23:42;;;;;;;27.98;20.50;;;;;;;2.14;74.50;100918.06;1772207;79;20981;-78
2022/11/08 00:26:10;;;;;;;27.10;20.92;;;;;;;2.12;74.48;100923.30;1760709;79;21000;-77
2022/11/08 00:28:37;;;;;;;28.60;21.15;;;;;;;2.12;74.53;100923.77;1741101;80;22239;-78
2022/11/08 00:31:06;;;;;;;30.72;22.20;;;;;;;2.13;74.60;100927.64;1739045;80;21362;-77
2022/11/08 00:33:33;;;;;;;29.15;21.68;;;;;;;2.15;74.65;100916.70;1740438;80;21012;-77
2022/11/08 00:36:00;;;;;;;29.42;21.25;;;;;;;2.17;74.67;100912.73;1741148;80;21154;-77
2022/11/08 00:38:27;;;;;;;28.87;21.95;;;;;;;2.18;74.72;100910.06;1739879;80;21047;-76
2022/11/08 00:40:54;;;;;;;30.30;22.62;;;;;;;2.20;74.77;100906.09;1739812;80;21837;-77
2022/11/08 00:43:21;;;;;;;30.40;22.67;;;;;;;2.21;74.76;100907.34;1741975;80;21048;-77
2022/11/08 00:45:49;;;;;;;27.32;20.90;;;;;;;2.22;74.77;100899.95;1738815;80;21028;-77
2022/11/08 00:48:15;;;;;;;29.90;20.85;;;;;;;2.24;74.83;100907.70;1736988;80;21071;-77
2022/11/08 00:50:43;;;;;;;29.50;22.20;;;;;;;2.27;74.83;100899.31;1736952;80;20995;-77
2022/11/08 00:53:09;;;;;;;28.57;21.60;;;;;;;2.26;74.82;100884.58;1738931;80;21782;-77
2022/11/08 00:55:36;;;;;;;28.75;22.13;;;;;;;2.27;74.85;100891.95;1738993;80;21392;-77
2022/11/08 00:58:03;;;;;;;28.55;22.40;;;;;;;2.27;74.87;100890.19;1736189;80;21404;-77
2022/11/08 01:00:29;;;;;;;26.10;20.30;;;;;;;2.29;74.92;100881.85;1738656;80;21429;-77
2022/11/08 01:03:38;;;;;;;28.20;20.77;;;;;;;2.32;74.99;100883.94;1740467;80;21021;-76
2022/11/08 01:05:27;;;;;;;23.60;18.75;;;;;;;2.32;74.96;100890.03;1722643;80;22539;-78
2022/11/08 01:07:54;;;;;;;25.20;19.42;;;;;;;2.33;75.03;100886.97;1737046;80;21462;-77
2022/11/08 01:10:22;;;;;;;26.37;19.77;;;;;;;2.34;75.02;100884.30;1741079;80;20992;-77
2022/11/08 01:12:49;;;;;;;26.50;19.80;;;;;;;2.34;75.03;100882.16;1741046;80;21079;-77
2022/11/08 01:15:15;;;;;;;24.12;19.95;;;;;;;2.35;75.00;100885.16;1739854;80;20916;-77
2022/11/08 01:17:42;;;;;;;26.00;19.85;;;;;;;2.34;75.05;100886.06;1739496;80;22008;-77
2022/11/08 01:20:09;;;;;;;24.57;19.95;;;;;;;2.36;75.08;100884.24;1740848;81;20984;-77
2022/11/08 01:22:36;;;;;;;28.47;19.95;;;;;;;2.35;75.10;100880.78;1738665;80;20987;-77
2022/11/08 01:25:04;;;;;;;25.88;19.90;;;;;;;2.40;75.04;100884.51;1737114;80;20984;-76
2022/11/08 01:27:32;;;;;;;25.10;19.40;;;;;;;2.43;75.00;100887.87;1758615;79;21012;-77
2022/11/08 01:29:58;;;;;;;22.90;19.05;;;;;;;2.44;74.93;100883.51;1769499;79;21888;-77
2022/11/08 01:32:25;;;;;;;21.93;18.60;;;;;;;2.40;74.74;100885.36;1769080;79;20940;-77
2022/11/08 01:34:52;;;;;;;20.55;16.77;;;;;;;2.38;74.75;100882.42;1771478;79;21027;-77
2022/11/08 01:37:18;;;;;;;24.23;18.00;;;;;;;2.39;74.74;100878.45;1770919;79;21086;-77
2022/11/08 01:39:45;;;;;;;21.25;17.27;;;;;;;2.38;74.65;100873.30;1770784;79;20953;-77
2022/11/08 01:42:11;;;;;;;21.68;17.15;;;;;;;2.39;74.62;100871.08;1771131;79;21533;-77
2022/11/08 01:45:03;;;;;;;20.45;16.25;;;;;;;2.36;74.60;100878.57;1767670;79;21509;-77
2022/11/08 01:47:30;;;;;;;19.02;15.55;;;;;;;2.35;74.60;100873.42;1733851;81;21102;-76
2022/11/08 01:50:07;;;;;;;20.10;16.05;;;;;;;2.35;74.57;100866.45;1720017;82;21079;-77
2022/11/08 01:52:42;;;;;;;19.37;15.90;;;;;;;2.36;74.58;100869.45;1773701;79;21091;-77
2022/11/08 01:55:26;;;;;;;20.92;16.57;;;;;;;2.35;74.59;100866.45;1752669;79;22489;-76
2022/11/08 01:58:00;;;;;;;19.23;16.15;;;;;;;2.36;74.57;100863.39;1771024;79;20992;-76
2022/11/08 02:00:27;;;;;;;20.32;17.07;;;;;;;2.37;74.62;100858.56;1767983;79;20984;-76
2022/11/08 02:02:59;;;;;;;20.72;16.80;;;;;;;2.40;74.68;100853.23;1764781;79;21001;-76
2022/11/08 02:05:26;;;;;;;17.25;14.60;;;;;;;2.42;74.65;100859.26;1768062;79;21086;-76
2022/11/08 02:08:03;;;;;;;18.17;14.83;;;;;;;2.42;74.59;100850.13;1770220;79;21796;-77
2022/11/08 02:10:39;;;;;;;19.37;15.40;;;;;;;2.40;74.55;100846.25;1767776;79;21442;-77
2022/11/08 02:13:10;;;;;;;19.37;16.15;;;;;;;2.38;74.57;100844.63;1772712;79;20944;-77
2022/11/08 02:15:37;;;;;;;16.32;13.90;;;;;;;2.37;74.64;100852.05;1771009;79;20988;-76
2022/11/08 02:18:05;;;;;;;17.77;14.93;;;;;;;2.36;74.66;100844.69;1771775;79;21019;-76
2022/11/08 02:20:32;;;;;;;16.85;14.23;;;;;;;2.38;74.68;100843.31;1781698;79;21799;-77
2022/11/08 02:23:17;;;;;;;18.85;15.30;;;;;;;2.38;74.70;100845.47;1728702;82;20928;-77
2022/11/08 02:25:44;;;;;;;19.45;15.78;;;;;;;2.39;74.74;100843.70;1769635;79;20964;-77
2022/11/08 02:28:11;;;;;;;17.62;14.93;;;;;;;2.39;74.77;100845.02;1760672;79;21470;-78
2022/11/08 02:30:37;;;;;;;19.77;16.05;;;;;;;2.39;74.79;100845.02;1773593;79;22225;-77
2022/11/08 02:33:15;;;;;;;19.10;15.00;;;;;;;2.41;74.83;100843.19;1772910;79;22494;-77
2022/11/08 02:35:51;;;;;;;20.15;16.15;;;;;;;2.44;74.91;100844.40;1768991;79;20981;-77
2022/11/08 02:38:17;;;;;;;19.85;16.77;;;;;;;2.44;74.87;100842.64;1771413;79;20996;-77
2022/11/08 02:40:53;;;;;;;17.62;14.15;;;;;;;2.43;74.91;100845.31;1769886;79;21396;-77
2022/11/08 02:43:20;;;;;;;21.35;16.82;;;;;;;2.45;75.00;100845.64;1773202;79;21503;-77
2022/11/08 02:45:47;;;;;;;19.42;15.63;;;;;;;2.46;75.02;100846.03;1769058;79;22448;-77
2022/11/08 02:48:14;;;;;;;21.23;16.35;;;;;;;2.48;75.04;100853.78;1769944;79;21024;-77
2022/11/08 02:50:41;;;;;;;19.23;15.28;;;;;;;2.48;75.03;100853.78;1760050;79;21021;-77
2022/11/08 02:53:08;;;;;;;19.37;15.72;;;;;;;2.47;75.03;100846.87;1772033;79;21039;-76
2022/11/08 02:55:35;;;;;;;17.37;14.55;;;;;;;2.45;75.02;100855.22;1765281;79;21019;-77
2022/11/08 02:58:01;;;;;;;18.80;15.18;;;;;;;2.42;75.07;100849.67;1772264;79;21870;-77
2022/11/08 03:00:30;;;;;;;19.23;15.48;;;;;;;2.39;75.07;100849.77;1773015;79;21483;-77
2022/11/08 03:02:56;;;;;;;18.90;15.55;;;;;;;2.39;75.13;100861.50;1770576;79;21344;-76
2022/11/08 03:05:24;;;;;;;18.12;14.33;;;;;;;2.38;75.12;100857.66;1771658;79;21008;-77
2022/11/08 03:07:50;;;;;;;18.73;15.72;;;;;;;2.37;75.11;100861.17;1770207;79;21398;-77
2022/11/08 03:10:17;;;;;;;19.65;15.65;;;;;;;2.36;75.14;100859.48;1768344;79;21893;-77
2022/11/08 03:12:45;;;;;;;18.60;15.70;;;;;;;2.36;75.18;100860.78;1772652;79;20992;-77
2022/11/08 03:15:12;;;;;;;21.02;16.57;;;;;;;2.35;75.17;100864.30;1770505;79;21043;-77
2022/11/08 03:17:39;;;;;;;21.12;16.62;;;;;;;2.35;75.18;100865.60;1748306;79;21027;-76
2022/11/08 03:20:07;;;;;;;19.10;15.30;;;;;;;2.35;75.26;100867.75;1770093;79;21040;-77
2022/11/08 03:22:34;;;;;;;20.17;16.65;;;;;;;2.37;75.29;100868.99;1771128;79;21752;-76
2022/11/08 03:25:01;;;;;;;21.42;16.05;;;;;;;2.38;75.25;100872.84;1762643;79;20971;-77
2022/11/08 03:27:28;;;;;;;20.65;15.95;;;;;;;2.41;75.25;100877.08;1714481;81;21009;-77
2022/11/08 03:29:54;;;;;;;21.73;16.57;;;;;;;2.41;75.21;100873.17;1696064;83;20972;-77
2022/11/08 03:32:20;;;;;;;18.60;14.93;;;;;;;2.43;75.17;100880.05;1710176;82;21005;-77
2022/11/08 03:34:47;;;;;;;19.55;15.23;;;;;;;2.41;75.13;100866.20;1706468;82;22558;-76
2022/11/08 03:37:14;;;;;;;21.07;15.90;;;;;;;2.43;75.10;100862.26;1708828;82;21532;-77
2022/11/08 03:39:42;;;;;;;16.32;13.72;;;;;;;2.44;75.12;100861.34;1677842;84;21093;-77
2022/11/08 03:42:09;;;;;;;18.75;15.50;;;;;;;2.48;75.15;100865.06;1711144;82;21432;-77
2022/11/08 03:44:36;;;;;;;20.35;16.20;;;;;;;2.49;75.08;100860.70;1679932;83;21441;-77
2022/11/08 03:47:03;;;;;;;18.77;15.58;;;;;;;2.49;75.02;100864.16;1676639;84;21832;-77
2022/11/08 03:49:30;;;;;;;17.20;13.70;;;;;;;2.50;75.01;100868.45;1687713;83;21075;-77
2022/11/08 03:51:56;;;;;;;18.02;14.68;;;;;;;2.50;75.05;100864.55;1711674;82;21001;-77
2022/11/08 03:54:23;;;;;;;17.82;14.75;;;;;;;2.51;74.98;100862.36;1708164;82;20956;-76
2022/11/08 03:56:50;;;;;;;19.57;15.48;;;;;;;2.52;74.93;100862.75;1704245;82;21106;-77
2022/11/08 03:59:17;;;;;;;16.73;14.03;;;;;;;2.51;74.90;100859.76;1705829;82;22192;-76
2022/11/08 04:01:43;;;;;;;18.00;14.40;;;;;;;2.50;74.88;100858.48;1709188;82;21018;-76
2022/11/08 04:04:10;;;;;;;17.50;15.48;;;;;;;2.49;74.87;100861.55;1695468;82;21029;-77
2022/11/08 04:06:37;;;;;;;19.15;15.18;;;;;;;2.50;74.92;100855.88;1708202;82;21054;-77
2022/11/08 04:09:03;;;;;;;16.50;14.03;;;;;;;2.51;74.90;100848.45;1706983;82;21005;-77
2022/11/08 04:17:00;;;;;;;20.55;15.43;;;;;;;2.43;74.92;100845.31;1699818;83;21050;-77
2022/11/08 04:22:11;;;;;;;19.17;15.50;;;;;;;2.39;75.03;100847.16;1702288;82;21122;-78
2022/11/08 04:24:39;;;;;;;17.75;14.53;;;;;;;2.39;75.10;100835.89;1707743;82;21893;-77
2022/11/08 04:27:05;;;;;;;18.70;14.93;;;;;;;2.41;75.17;100832.77;1718719;81;20944;-77
2022/11/08 04:29:32;;;;;;;16.23;13.58;;;;;;;2.40;75.26;100825.39;1741603;81;21006;-77
2022/11/08 04:31:59;;;;;;;18.98;15.55;;;;;;;2.40;75.35;100814.97;1740577;81;20991;-78
2022/11/08 04:34:27;;;;;;;18.55;15.15;;;;;;;2.40;75.41;100820.64;1739509;80;21000;-77
2022/11/08 04:36:54;;;;;;;21.15;15.35;;;;;;;2.42;75.49;100827.52;1773014;79;21902;-77
2022/11/08 04:39:21;;;;;;;20.97;15.23;;;;;;;2.43;75.53;100820.55;1738162;80;21094;-77
2022/11/08 04:41:47;;;;;;;19.32;15.63;;;;;;;2.44;75.57;100817.02;1715315;82;21060;-77
2022/11/08 04:44:17;;;;;;;18.30;14.75;;;;;;;2.45;75.58;100842.19;1717044;81;20976;-78
2022/11/08 04:46:43;;;;;;;19.25;15.38;;;;;;;2.44;75.66;100841.34;1742149;81;20989;-77
2022/11/08 04:49:09;;;;;;;18.75;15.60;;;;;;;2.45;75.72;100849.55;1738200;80;21837;-77
2022/11/08 04:51:36;;;;;;;19.15;15.28;;;;;;;2.47;75.76;100846.87;1743141;80;20941;-76
2022/11/08 04:54:06;;;;;;;20.82;15.58;;;;;;;2.49;75.80;100856.33;1779626;79;21656;-76
2022/11/08 04:56:33;;;;;;;20.52;16.73;;;;;;;2.50;75.82;100852.81;1780035;79;21058;-76
2022/11/08 04:58:59;;;;;;;21.40;16.17;;;;;;;2.51;75.85;100854.54;1775147;79;21044;-76
2022/11/08 05:01:29;;;;;;;19.80;15.58;;;;;;;2.52;75.90;100851.02;1776984;79;21031;-77
2022/11/08 05:03:56;;;;;;;22.45;16.93;;;;;;;2.53;75.96;100854.02;1784036;79;21360;-77
2022/11/08 05:06:28;;;;;;;21.05;15.58;;;;;;;2.54;76.01;100854.87;1775829;79;21506;-77
2022/11/08 05:08:56;;;;;;;20.77;16.57;;;;;;;2.56;76.06;100853.89;1775714;79;21489;-77
2022/11/08 05:11:25;;;;;;;20.32;15.55;;;;;;;2.57;76.13;100859.50;1776705;79;21047;-77
2022/11/08 05:13:51;;;;;;;19.23;15.80;;;;;;;2.61;76.13;100858.95;1776479;79;21778;-77
2022/11/08 05:16:20;;;;;;;20.62;16.07;;;;;;;2.64;76.18;100856.21;1737115;80;21282;-77
2022/11/08 05:18:48;;;;;;;20.77;15.63;;;;;;;2.67;76.20;100863.91;1706418;82;21040;-77
2022/11/08 05:24:03;;;;;;;21.62;16.93;;;;;;;2.71;76.18;100861.59;1706703;82;21472;-77
2022/11/08 05:26:30;;;;;;;22.22;17.17;;;;;;;2.73;76.22;100853.70;1773200;79;22196;-77
2022/11/08 05:28:57;;;;;;;21.48;16.80;;;;;;;2.75;76.25;100864.45;1753915;80;21384;-77
2022/11/08 05:31:24;;;;;;;21.95;16.50;;;;;;;2.78;76.26;100871.31;1775009;79;21383;-76
2022/11/08 05:33:51;;;;;;;21.93;17.45;;;;;;;2.81;76.29;100872.05;1774292;79;21059;-77
2022/11/08 05:36:18;;;;;;;21.23;16.55;;;;;;;2.83;76.22;100881.97;1775933;79;20933;-77
2022/11/08 05:38:45;;;;;;;23.12;16.95;;;;;;;2.83;76.17;100873.30;1773418;79;21726;-77
2022/11/08 05:41:19;;;;;;;21.40;16.77;;;;;;;2.82;76.21;100875.52;1772577;79;20992;-77
2022/11/08 05:43:50;;;;;;;24.75;17.10;;;;;;;2.84;76.23;100879.75;1775780;79;21471;-77
2022/11/08 05:46:17;;;;;;;23.67;17.35;;;;;;;2.86;76.23;100879.23;1779058;79;21009;-77
2022/11/08 05:48:45;;;;;;;23.90;17.15;;;;;;;2.89;76.28;100886.08;1767337;79;21013;-77
2022/11/08 05:51:16;;;;;;;21.70;16.90;;;;;;;2.91;76.27;100885.59;1775390;78;21829;-77
2022/11/08 05:53:45;;;;;;;22.13;17.15;;;;;;;2.94;76.26;100880.69;1774521;79;21055;-76
2022/11/08 05:56:12;;;;;;;20.10;16.02;;;;;;;2.92;76.19;100880.76;1771627;79;21402;-76
2022/11/08 05:58:38;;;;;;;22.13;16.90;;;;;;;2.94;76.25;100880.23;1767463;79;21080;-77
2022/11/08 06:01:13;;;;;;;20.85;15.60;;;;;;;2.95;76.25;100873.25;1773761;79;21154;-76
2022/11/08 06:03:40;;;;;;;23.12;16.93;;;;;;;2.95;76.26;100876.72;1732314;79;22711;-77
2022/11/08 06:06:15;;;;;;;23.02;16.07;;;;;;;2.96;76.18;100877.56;1774182;79;21151;-78
2022/11/08 06:08:47;;;;;;;22.32;16.77;;;;;;;2.95;76.21;100875.41;1763054;79;21046;-79
2022/11/08 06:11:18;;;;;;;22.05;17.32;;;;;;;2.96;76.23;100878.87;1767990;79;21059;-77
2022/11/08 06:13:44;;;;;;;22.77;15.43;;;;;;;2.99;76.27;100882.65;1770817;79;21539;-78
2022/11/08 06:16:13;;;;;;;22.80;16.60;;;;;;;3.03;76.33;100895.53;1770027;79;21831;-75
2022/11/08 06:18:41;;;;;;;22.80;17.60;;;;;;;3.05;76.30;100889.78;1774600;79;20976;-76
2022/11/08 06:21:11;;;;;;;23.40;18.00;;;;;;;3.07;76.28;100884.50;1774374;79;21092;-76
2022/11/08 06:23:37;;;;;;;23.70;18.30;;;;;;;3.08;76.22;100894.02;1779069;79;20956;-77
2022/11/08 06:26:04;;;;;;;26.35;18.27;;;;;;;3.09;76.17;100890.53;1770672;79;21094;-77
2022/11/08 06:28:31;;;;;;;24.80;18.77;;;;;;;3.09;76.11;100886.62;1737147;80;21778;-77
2022/11/08 06:30:59;;;;;;;23.47;19.52;;;;;;;3.10;76.10;100887.86;1745646;80;21093;-76
2022/11/08 06:33:26;;;;;;;26.07;18.73;;;;;;;3.13;76.12;100890.79;1785816;78;21059;-75
2022/11/08 06:35:53;;;;;;;28.35;18.50;;;;;;;3.15;76.10;100885.05;1739251;80;20997;-75
2022/11/08 06:38:20;;;;;;;26.62;19.45;;;;;;;3.15;76.04;100886.34;1746052;80;21434;-74
2022/11/08 06:40:46;;;;;;;29.15;20.43;;;;;;;3.16;76.00;100883.67;1745071;80;22543;-74
2022/11/08 06:43:13;;;;;;;26.05;20.05;;;;;;;3.20;75.96;100890.94;1739251;80;21500;-74
2022/11/08 06:45:42;;;;;;;26.07;19.55;;;;;;;3.22;75.97;100881.73;1704790;82;21072;-73
2022/11/08 06:48:09;;;;;;;24.37;18.10;;;;;;;3.24;75.90;100876.84;1726497;80;21039;-71
2022/11/08 06:50:37;;;;;;;29.60;21.87;;;;;;;3.25;75.82;100872.01;1740955;80;21017;-70
2022/11/08 06:53:09;;;;;;;29.15;21.25;;;;;;;3.28;75.84;100878.86;1742713;80;21710;-71
2022/11/08 06:55:36;;;;;;;28.95;20.97;;;;;;;3.30;75.87;100879.21;1724998;80;20957;-74
2022/11/08 06:58:03;;;;;;;34.25;22.35;;;;;;;3.33;75.83;100874.31;1732671;80;21072;-77
2022/11/08 07:00:30;;;;;;;34.65;21.35;;;;;;;3.34;75.69;100863.80;1737822;80;21123;-74
2022/11/08 07:03:00;;;;;;;30.48;22.05;;;;;;;3.35;75.59;100865.95;1737662;80;21062;-72
2022/11/08 07:05:27;;;;;;;30.52;22.25;;;;;;;3.34;75.51;100870.78;1742140;82;21930;-72
2022/11/08 07:07:56;;;;;;;32.53;22.00;;;;;;;3.32;75.29;100864.33;1741287;80;21293;-73
2022/11/08 07:10:24;;;;;;;28.27;20.88;;;;;;;3.31;75.25;100865.70;1723205;82;21000;-72
2022/11/08 07:13:05;;;;;;;29.70;21.20;;;;;;;3.32;75.30;100877.37;1741678;80;21003;-72
2022/11/08 07:15:33;;;;;;;27.65;20.52;;;;;;;3.32;75.23;100870.00;1743990;80;21086;-71
2022/11/08 07:18:04;;;;;;;27.77;21.12;;;;;;;3.34;75.28;100872.94;1743203;80;21905;-73
2022/11/08 07:20:31;;;;;;;34.18;22.45;;;;;;;3.37;75.24;100868.88;1737801;80;20975;-70
2022/11/08 07:22:58;;;;;;;30.97;22.30;;;;;;;3.41;75.29;100864.41;1739356;82;20938;-75
2022/11/08 07:25:25;;;;;;;28.45;21.20;;;;;;;3.49;75.36;100874.53;1739976;81;21561;-71
2022/11/08 07:28:01;;;;;;;30.25;21.75;;;;;;;3.56;75.33;100875.95;1740470;80;21039;-74
2022/11/08 07:30:28;;;;;;;33.30;21.15;;;;;;;3.59;75.24;100871.46;1729783;80;21885;-72
2022/11/08 07:32:55;;;;;;;28.92;20.15;;;;;;;3.61;75.02;100874.00;1734266;81;21075;-69
2022/11/08 07:35:24;;;;;;;28.50;20.45;;;;;;;3.63;75.06;100869.09;1739294;80;21004;-69
2022/11/08 07:37:51;;;;;;;28.12;20.12;;;;;;;3.68;75.07;100877.60;1737736;80;21078;-73
2022/11/08 07:40:19;;;;;;;27.93;20.27;;;;;;;3.71;74.96;100878.77;1738510;80;21047;-69
2022/11/08 07:42:46;;;;;;;25.72;20.05;;;;;;;3.73;74.94;100863.87;1738869;80;21948;-71
2022/11/08 07:45:13;;;;;;;29.82;20.17;;;;;;;3.77;74.77;100867.22;1739167;80;21059;-70
2022/11/08 07:47:39;;;;;;;27.95;20.17;;;;;;;3.80;74.78;100872.30;1737535;80;21009;-71
2022/11/08 07:50:08;;;;;;;27.93;20.45;;;;;;;3.84;74.73;100873.84;1728918;80;20949;-70
2022/11/08 07:52:34;;;;;;;29.30;20.05;;;;;;;3.86;74.66;100865.52;1729416;81;21016;-69
2022/11/08 07:55:02;;;;;;;27.35;19.60;;;;;;;3.91;74.70;100864.83;1736355;80;21910;-71
2022/11/08 07:57:29;;;;;;;27.98;20.02;;;;;;;3.93;74.46;100870.84;1735745;80;21043;-71
2022/11/08 07:59:57;;;;;;;26.62;18.35;;;;;;;3.95;74.41;100865.08;1733425;80;21039;-72
2022/11/08 08:02:23;;;;;;;29.27;20.32;;;;;;;3.99;74.31;100865.81;1736166;80;21103;-70
2022/11/08 08:04:51;;;;;;;26.60;19.45;;;;;;;4.02;74.23;100873.50;1737528;82;20976;-71
2022/11/08 08:07:18;;;;;;;26.30;18.52;;;;;;;4.07;74.21;100878.55;1743158;80;21936;-71
2022/11/08 08:09:46;;;;;;;30.17;19.27;;;;;;;4.12;74.17;100877.41;1739088;81;21040;-72
2022/11/08 08:12:13;;;;;;;28.42;19.40;;;;;;;4.17;74.14;100869.38;1735909;81;20960;-70
2022/11/08 08:14:48;;;;;;;25.05;17.92;;;;;;;4.21;73.88;100874.84;1733896;81;21013;-68
2022/11/08 08:17:16;;;;;;;24.10;17.77;;;;;;;4.24;73.91;100876.84;1699315;82;21002;-69
2022/11/08 08:19:43;;;;;;;23.95;18.57;;;;;;;4.30;73.90;100869.20;1748375;80;21842;-70
2022/11/08 08:22:10;;;;;;;24.75;18.90;;;;;;;4.35;73.75;100858.55;1735340;81;20988;-70
2022/11/08 08:24:39;;;;;;;23.27;17.25;;;;;;;4.39;73.66;100858.31;1736552;81;21585;-70
2022/11/08 08:27:06;;;;;;;24.40;17.73;;;;;;;4.45;73.63;100861.97;1741081;81;20964;-70
2022/11/08 08:29:33;;;;;;;22.70;16.67;;;;;;;4.53;73.53;100862.89;1744824;80;21090;-70
2022/11/08 08:32:03;;;;;;;25.08;17.67;;;;;;;4.63;73.63;100856.77;1744737;80;21928;-71
2022/11/08 08:34:30;;;;;;;23.30;17.27;;;;;;;4.72;73.48;100855.88;1709303;81;20999;-70
2022/11/08 08:36:57;;;;;;;23.00;16.90;;;;;;;4.81;73.00;100847.59;1734425;80;21355;-71
2022/11/08 08:39:24;;;;;;;23.22;16.25;;;;;;;4.86;72.82;100848.70;1744191;81;21016;-70
2022/11/08 08:41:51;;;;;;;23.55;17.00;;;;;;;4.93;72.77;100847.95;1714587;81;21047;-69
2022/11/08 08:44:17;;;;;;;24.65;16.75;;;;;;;4.98;72.52;100853.79;1711308;81;22000;-69
2022/11/08 08:46:44;;;;;;;23.47;16.02;;;;;;;5.00;72.43;100855.41;1737064;81;21339;-69
2022/11/08 08:49:14;;;;;;;21.77;16.62;;;;;;;5.05;72.42;100855.20;1707445;82;21056;-69
2022/11/08 08:51:41;;;;;;;22.32;17.52;;;;;;;5.11;72.41;100852.26;1716499;82;21039;-71
2022/11/08 08:54:08;;;;;;;25.77;17.05;;;;;;;5.16;72.14;100853.74;1713498;82;21010;-71
2022/11/08 08:56:34;;;;;;;23.30;16.73;;;;;;;5.18;72.14;100841.88;1714037;81;22759;-71
2022/11/08 08:59:01;;;;;;;20.17;15.83;;;;;;;5.23;72.00;100845.59;1721012;82;20905;-71
2022/11/08 09:01:28;;;;;;;22.20;16.87;;;;;;;5.24;71.78;100843.36;1718602;81;21080;-70
2022/11/08 09:03:57;;;;;;;24.50;17.23;;;;;;;5.28;71.70;100840.95;1723599;81;21077;-74
2022/11/08 09:06:24;;;;;;;22.52;16.35;;;;;;;5.29;71.59;100845.27;1721783;82;21031;-69
2022/11/08 09:08:51;;;;;;;21.85;16.37;;;;;;;5.33;71.62;100837.20;1702995;84;21829;-69
2022/11/08 09:11:17;;;;;;;21.05;16.55;;;;;;;5.51;71.92;100834.58;1712724;82;21377;-69
2022/11/08 09:13:44;;;;;;;22.75;16.90;;;;;;;5.70;71.63;100822.22;1712949;82;21486;-69
2022/11/08 09:16:13;;;;;;;22.70;15.63;;;;;;;5.86;71.67;100811.30;1713265;82;20989;-69
2022/11/08 09:18:42;;;;;;;19.12;15.55;;;;;;;6.07;71.47;100809.80;1715509;82;21044;-69
2022/11/08 09:21:10;;;;;;;19.42;14.78;;;;;;;6.17;71.18;100803.97;1716824;82;21852;-69
2022/11/08 09:23:36;;;;;;;22.42;16.52;;;;;;;6.25;70.79;100807.03;1710898;82;20953;-69
2022/11/08 09:26:04;;;;;;;23.62;15.90;;;;;;;6.28;70.35;100816.06;1713537;82;20957;-69
2022/11/08 09:28:33;;;;;;;20.20;15.65;;;;;;;6.29;70.08;100819.06;1712590;82;21012;-70
2022/11/08 09:31:08;;;;;;;20.92;16.20;;;;;;;6.30;69.86;100818.13;1686289;83;21060;-69
2022/11/08 09:33:35;;;;;;;20.25;15.00;;;;;;;6.33;69.69;100817.11;1711846;83;21823;-69
2022/11/08 09:36:04;;;;;;;21.15;15.35;;;;;;;6.28;69.36;100806.03;1724683;82;21433;-70
2022/11/08 09:38:31;;;;;;;22.00;15.35;;;;;;;6.31;69.62;100796.68;1712995;82;20986;-69
2022/11/08 09:41:36;;;;;;;18.87;15.03;;;;;;;6.37;69.60;100796.35;1705915;83;21049;-69
2022/11/08 09:44:35;;;;;;;17.85;14.00;;;;;;;6.46;69.64;100802.38;1703855;84;21033;-69
2022/11/08 09:47:08;;;;;;;21.90;14.93;;;;;;;6.56;69.53;100800.96;1721500;81;21857;-69
2022/11/08 09:50:00;;;;;;;19.25;13.20;;;;;;;6.65;69.44;100785.60;1710746;82;20949;-70
2022/11/08 09:52:30;;;;;;;17.82;13.08;;;;;;;6.77;69.47;100774.42;1695528;82;20970;-70
2022/11/08 09:55:08;;;;;;;17.52;12.53;;;;;;;6.95;69.18;100776.00;1711133;82;20954;-70
2022/11/08 09:57:59;;;;;;;16.32;13.13;;;;;;;7.08;68.85;100776.12;1707514;82;20950;-69
2022/11/08 10:00:29;;;;;;;17.57;12.25;;;;;;;7.28;68.57;100772.31;1710983;83;21874;-70
2022/11/08 10:02:56;;;;;;;16.80;12.37;;;;;;;7.57;68.69;100779.77;1709316;83;20958;-70
2022/11/08 10:05:24;;;;;;;17.27;12.75;;;;;;;7.86;68.47;100784.57;1714331;83;20944;-70
2022/11/08 10:08:16;;;;;;;16.70;12.05;;;;;;;8.10;67.96;100772.98;1777840;79;21013;-70
2022/11/08 10:10:57;;;;;;;14.95;11.70;;;;;;;8.24;67.28;100770.34;1773498;79;20990;-70
2022/11/08 10:13:42;;;;;;;13.13;10.40;;;;;;;8.37;66.42;100773.06;1758281;79;21865;-70
2022/11/08 10:16:30;;;;;;;13.65;9.75;;;;;;;8.40;65.53;100775.05;1774150;79;21001;-70
2022/11/08 10:19:20;;;;;;;16.93;11.68;;;;;;;8.38;65.37;100768.17;1774137;81;21023;-70
2022/11/08 10:21:59;;;;;;;14.60;10.68;;;;;;;8.36;65.26;100769.59;1761721;79;20940;-70
2022/11/08 10:24:34;;;;;;;16.02;11.78;;;;;;;8.35;65.42;100772.32;1732240;81;21377;-70
2022/11/08 10:27:03;;;;;;;15.55;11.57;;;;;;;8.35;65.41;100771.01;1693580;82;22173;-70
2022/11/08 10:29:36;;;;;;;15.45;10.95;;;;;;;8.36;65.51;100770.91;1657458;84;21060;-70
2022/11/08 10:32:18;;;;;;;14.68;10.98;;;;;;;8.40;65.44;100772.41;1783272;80;20944;-71
2022/11/08 10:35:12;;;;;;;16.20;11.40;;;;;;;8.37;64.98;100772.59;1776968;79;20961;-70
2022/11/08 10:37:40;;;;;;;13.90;10.85;;;;;;;8.36;65.23;100775.33;1780738;79;20941;-69
2022/11/08 10:40:40;;;;;;;16.93;11.75;;;;;;;8.42;65.28;100767.89;1773249;79;21846;-70
2022/11/08 10:43:17;;;;;;;14.85;11.03;;;;;;;8.49;65.18;100765.25;1779221;79;21352;-70
2022/11/08 10:45:44;;;;;;;13.32;10.23;;;;;;;8.61;64.84;100767.55;1779706;80;21529;-71
2022/11/08 10:48:11;;;;;;;15.13;11.05;;;;;;;8.67;64.58;100764.50;1781328;79;20991;-71
2022/11/08 10:50:50;;;;;;;14.05;10.93;;;;;;;8.68;64.60;100759.59;1779947;79;21083;-70
2022/11/08 10:53:25;;;;;;;14.75;10.72;;;;;;;8.66;64.29;100755.39;1781366;79;21935;-70
2022/11/08 10:56:02;;;;;;;13.62;10.10;;;;;;;8.67;64.29;100751.80;1778902;79;20998;-70
2022/11/08 10:58:38;;;;;;;13.08;9.38;;;;;;;8.68;64.44;100749.06;1779523;79;21038;-70
2022/11/08 11:01:18;;;;;;;15.68;9.83;;;;;;;8.78;64.40;100754.58;1776289;79;21035;-69
2022/11/08 11:03:46;;;;;;;14.47;9.63;;;;;;;8.84;63.75;100753.70;1778095;79;21017;-70
2022/11/08 11:06:31;;;;;;;14.03;9.70;;;;;;;8.88;63.40;100757.84;1774251;79;21811;-71
2022/11/08 11:09:03;;;;;;;14.10;9.73;;;;;;;8.91;63.44;100756.79;1740142;80;21091;-69
2022/11/08 11:11:35;;;;;;;13.65;10.23;;;;;;;8.92;63.10;100765.06;1717719;83;21008;-72
2022/11/08 11:14:16;;;;;;;13.05;10.00;;;;;;;8.95;63.09;100760.05;1714576;82;21631;-70
2022/11/08 11:16:52;;;;;;;11.85;8.95;;;;;;;9.00;63.27;100750.06;1777086;79;21014;-71
2022/11/08 11:19:19;;;;;;;12.82;9.60;;;;;;;9.11;63.28;100755.45;1776152;79;21751;-69
2022/11/08 11:21:52;;;;;;;11.08;8.63;;;;;;;9.13;63.03;100750.92;1776269;79;21074;-68
2022/11/08 11:24:19;;;;;;;12.20;9.23;;;;;;;9.17;62.92;100747.16;1754088;80;21509;-68
2022/11/08 11:26:58;;;;;;;11.30;8.65;;;;;;;9.21;62.94;100742.03;1778960;79;21027;-69
2022/11/08 11:29:31;;;;;;;15.13;9.88;;;;;;;9.28;62.77;100746.42;1775578;79;21078;-69
2022/11/08 11:32:00;;;;;;;16.87;12.28;;;;;;;9.26;62.35;100750.45;1779736;79;21868;-69
2022/11/08 11:34:44;;;;;;;20.10;16.00;;;;;;;9.28;62.40;100752.53;1743661;80;21013;-69
2022/11/08 11:37:19;;;;;;;16.12;12.70;;;;;;;9.29;61.99;100748.11;1780496;79;21037;-69
2022/11/08 11:39:55;;;;;;;18.87;13.58;;;;;;;9.26;61.82;100750.92;1778094;79;21057;-70
2022/11/08 11:42:34;;;;;;;16.02;10.78;;;;;;;9.21;61.80;100750.41;1784271;79;21037;-70
2022/11/08 11:45:25;;;;;;;14.98;10.08;;;;;;;9.18;61.82;100752.79;1778152;78;21891;-71
2022/11/08 11:47:54;;;;;;;13.25;9.58;;;;;;;9.18;61.93;100755.42;1779362;79;21100;-69
2022/11/08 11:50:36;;;;;;;12.85;10.20;;;;;;;9.17;61.83;100757.22;1781438;79;21028;-69
2022/11/08 11:53:17;;;;;;;14.30;10.78;;;;;;;9.15;61.91;100753.81;1778796;79;21491;-70